Time;durP1;ratioP1;P1;durP2;ratioP2;P2;SDS_P1;SDS_P2;PMS_P1;PMS_P2;Temp;Humidity;BMP_temperature;BMP_pressure;BME280_temperature;BME280_humidity;BME280_pressure;Samples;Min_cycle;Max_cycle;Signal;HPM_P1;HPM_P2
2022/02/01 00:03:38;;;;;;;;;7.00;6.50;;;;;5.76;57.54;102045.09;5065249;28;45981;-76
2022/02/01 00:06:23;;;;;;;;;9.00;7.50;;;;;5.75;57.62;102049.44;5063482;28;45673;-76
2022/02/01 00:09:07;;;;;;;;;7.50;6.25;;;;;5.72;57.57;102035.69;5060721;28;45629;-77
2022/02/01 00:36:22;;;;;;;;;11.75;8.25;;;;;5.61;57.58;102033.38;5011869;28;45730;-77
2022/02/01 00:38:59;;;;;;;;;8.00;6.00;;;;;5.55;57.49;102027.50;5012123;28;45975;-74
2022/02/01 00:41:30;;;;;;;;;4.75;4.50;;;;;5.61;57.67;102041.19;5012077;28;45807;-77
2022/02/01 00:43:55;;;;;;;;;11.00;8.00;;;;;5.58;57.94;102028.25;5011913;28;47056;-78
2022/02/01 00:46:23;;;;;;;;;6.00;5.00;;;;;5.66;57.67;102049.69;5012045;28;45785;-77
2022/02/01 00:48:48;;;;;;;;;5.75;5.00;;;;;5.68;57.56;102047.03;5012325;28;45707;-78
2022/02/01 00:51:14;;;;;;;;;10.00;8.25;;;;;5.64;57.61;102053.22;5011866;28;46513;-76
2022/02/01 00:53:41;;;;;;;;;6.25;5.25;;;;;5.63;57.80;102054.97;5011968;28;45816;-75
2022/02/01 00:56:07;;;;;;;;;6.50;6.50;;;;;5.59;57.63;102055.09;5012085;28;45735;-74
2022/02/01 00:58:32;;;;;;;;;8.50;5.00;;;;;5.63;57.96;102067.97;5011648;28;45700;-75
2022/02/01 01:00:58;;;;;;;;;8.25;5.50;;;;;5.64;57.48;102084.41;5053536;28;46542;-77
2022/02/01 01:03:24;;;;;;;;;5.50;5.00;;;;;5.59;57.66;102063.75;5053821;28;45967;-75
2022/02/01 01:05:50;;;;;;;;;5.50;5.00;;;;;5.62;57.64;102081.00;5053983;28;45852;-76
2022/02/01 01:08:16;;;;;;;;;11.00;6.75;;;;;5.57;57.74;102083.72;5054098;28;45610;-76
2022/02/01 01:10:42;;;;;;;;;5.25;5.25;;;;;5.58;57.73;102095.81;5053735;28;46649;-76
2022/02/01 01:15:40;;;;;;;;;6.25;4.00;;;;;5.58;57.88;102082.84;5053507;28;45657;-77
2022/02/01 01:45:13;;;;;;;;;5.00;4.25;;;;;5.51;59.02;102050.09;5053353;28;46313;-74
2022/02/01 01:53:14;;;;;;;;;6.25;4.25;;;;;5.55;59.13;102043.09;5056951;28;45800;-77
2022/02/01 01:55:46;;;;;;;;;6.00;5.25;;;;;5.56;58.80;102053.41;5056530;28;47259;-77
2022/02/01 01:58:12;;;;;;;;;6.25;5.25;;;;;5.57;59.00;102057.72;5056075;28;45428;-76
2022/02/01 02:03:12;;;;;;;;;4.25;4.25;;;;;5.56;59.26;102045.63;5056114;28;46456;-76
2022/02/01 02:05:37;;;;;;;;;3.50;2.00;;;;;5.62;59.05;102053.25;5056376;28;45982;-75
2022/02/01 02:08:03;;;;;;;;;4.50;3.00;;;;;5.64;59.35;102037.63;5056517;28;45722;-73
2022/02/01 02:10:33;;;;;;;;;4.75;2.00;;;;;5.66;59.57;102043.66;5057585;28;45775;-75
2022/02/01 02:15:56;;;;;;;;;5.00;4.00;;;;;5.59;59.49;102036.91;5056629;28;45635;-75
2022/02/01 02:18:23;;;;;;;;;4.25;4.00;;;;;5.65;59.88;102028.94;5039718;28;45899;-74
2022/02/01 02:20:49;;;;;;;;;6.00;3.50;;;;;5.70;59.61;102040.91;5038577;28;45864;-75
2022/02/01 02:23:14;;;;;;;;;1.25;1.25;;;;;5.70;59.55;102040.06;5056557;28;46783;-77
2022/02/01 02:25:40;;;;;;;;;6.00;5.00;;;;;5.76;59.86;102061.53;5056396;28;45713;-75
2022/02/01 02:28:09;;;;;;;;;4.75;4.00;;;;;5.76;59.82;102061.53;5056014;28;45713;-74
2022/02/01 02:30:35;;;;;;;;;6.00;4.00;;;;;5.74;60.19;102054.66;5037614;28;45599;-74
2022/02/01 02:33:06;;;;;;;;;5.00;4.00;;;;;5.76;60.33;102053.75;5056421;28;45754;-74
2022/02/01 02:35:37;;;;;;;;;4.25;2.50;;;;;5.82;60.43;102047.53;5055918;28;46124;-77
2022/02/01 02:38:07;;;;;;;;;6.25;4.00;;;;;5.77;60.16;102042.47;5055457;28;45619;-76
2022/02/01 02:40:55;;;;;;;;;5.50;4.00;;;;;5.87;60.36;102049.13;5055831;28;45802;-76
2022/02/01 02:46:02;;;;;;;;;6.00;4.50;;;;;5.93;60.54;102032.50;5056045;28;45711;-77
2022/02/01 02:48:27;;;;;;;;;4.00;3.00;;;;;5.99;60.35;102053.13;5055840;28;45954;-77
2022/02/01 02:50:53;;;;;;;;;4.00;3.00;;;;;6.02;60.98;102046.97;5056138;28;45767;-77
2022/02/01 02:53:18;;;;;;;;;5.00;3.00;;;;;6.03;61.16;102035.69;5055518;28;47599;-75
2022/02/01 02:55:44;;;;;;;;;4.25;2.00;;;;;5.94;61.32;102002.16;5055993;28;45600;-77
2022/02/01 02:58:10;;;;;;;;;4.00;4.00;;;;;6.01;61.37;102003.66;5055729;28;45753;-76
2022/02/01 03:00:38;;;;;;;;;2.50;2.50;;;;;5.89;61.76;101978.84;5055489;28;45539;-78
2022/02/01 03:03:04;;;;;;;;;4.00;4.00;;;;;5.97;61.46;101987.28;5055807;28;45726;-77
2022/02/01 03:05:30;;;;;;;;;4.75;2.00;;;;;5.94;61.83;101996.94;5055839;28;45908;-77
2022/02/01 03:07:55;;;;;;;;;5.75;3.50;;;;;5.97;62.02;102004.63;5054314;28;45767;-76
2022/02/01 03:10:22;;;;;;;;;3.50;3.50;;;;;5.97;62.05;102015.91;5055723;28;45699;-75
2022/02/01 03:15:35;;;;;;;;;4.00;2.00;;;;;5.97;62.20;102013.28;5055257;28;46146;-77
2022/02/01 03:20:45;;;;;;;;;4.00;2.00;;;;;5.92;62.68;101989.19;5055514;28;45611;-76
2022/02/01 03:23:12;;;;;;;;;4.25;4.25;;;;;5.92;62.47;101972.72;5055625;28;45558;-76
2022/02/01 03:25:37;;;;;;;;;2.75;1.75;;;;;5.94;62.74;101982.16;5055271;28;46052;-75
2022/02/01 03:28:03;;;;;;;;;4.00;2.00;;;;;5.95;62.65;101978.66;5055093;28;45853;-75
2022/02/01 03:30:28;;;;;;;;;4.25;4.00;;;;;5.91;63.11;101982.25;5037016;28;45682;-74
2022/02/01 03:32:54;;;;;;;;;5.00;4.00;;;;;5.94;62.82;101982.16;5055083;28;47848;-77
2022/02/01 03:35:19;;;;;;;;;5.00;3.50;;;;;5.90;62.80;101977.94;5055422;28;46138;-77
2022/02/01 03:37:45;;;;;;;;;3.00;2.00;;;;;5.92;63.05;101983.97;5055091;28;45772;-76
2022/02/01 03:40:16;;;;;;;;;5.50;2.00;;;;;5.98;63.28;101985.53;5037171;28;45646;-77
2022/02/01 03:42:43;;;;;;;;;5.75;2.00;;;;;5.96;63.32;101992.53;5055115;28;45687;-77
2022/02/01 03:45:09;;;;;;;;;4.00;4.00;;;;;5.86;63.84;101973.72;5054824;28;46979;-76
2022/02/01 03:47:35;;;;;;;;;6.25;3.50;;;;;5.98;63.68;101996.81;5054932;28;45860;-76
2022/02/01 03:50:01;;;;;;;;;4.00;3.50;;;;;6.02;63.82;102002.75;5054633;28;46144;-76
2022/02/01 03:52:28;;;;;;;;;4.00;2.00;;;;;6.02;64.32;101980.19;5055011;28;46507;-74
2022/02/01 03:54:53;;;;;;;;;5.50;4.00;;;;;6.05;64.34;101971.44;5054709;28;46113;-77
2022/02/01 03:57:19;;;;;;;;;4.50;4.00;;;;;6.01;64.17;101956.81;5054950;28;45562;-77
2022/02/01 03:59:44;;;;;;;;;4.25;2.00;;;;;6.08;63.98;101959.19;5054648;28;45807;-74
2022/02/01 04:02:11;;;;;;;;;4.00;2.00;;;;;6.12;64.55;101966.00;5054718;28;45769;-76
2022/02/01 04:04:37;;;;;;;;;3.00;2.00;;;;;6.15;64.77;101967.69;5054705;28;46278;-76
2022/02/01 04:07:04;;;;;;;;;5.25;4.00;;;;;6.14;64.49;101950.34;5054684;28;45622;-74
2022/02/01 04:09:30;;;;;;;;;1.75;1.50;;;;;6.16;65.10;101956.34;5055125;28;45715;-74
2022/02/01 04:11:58;;;;;;;;;5.75;4.00;;;;;6.13;64.95;101941.69;5054320;28;47135;-76
2022/02/01 04:17:45;;;;;;;;;4.25;3.50;;;;;6.23;65.05;101956.13;5054489;28;45832;-74
2022/02/01 04:20:11;;;;;;;;;4.00;4.00;;;;;6.21;65.44;101934.50;5054732;28;45781;-76
2022/02/01 04:22:36;;;;;;;;;5.00;3.50;;;;;6.27;65.22;101954.25;5053750;28;46330;-75
2022/02/01 04:25:01;;;;;;;;;4.25;2.00;;;;;6.26;65.41;101945.59;5054352;28;45814;-74
2022/02/01 04:27:32;;;;;;;;;4.75;4.00;;;;;6.25;65.34;101938.72;5054258;28;45667;-73
2022/02/01 04:33:20;;;;;;;;;8.75;4.50;;;;;6.38;65.55;101949.56;5053950;28;45567;-75
2022/02/01 04:35:45;;;;;;;;;4.25;3.50;;;;;6.41;65.83;101948.63;5054415;28;45740;-74
2022/02/01 04:38:10;;;;;;;;;5.00;2.00;;;;;6.26;65.71;101935.19;5053116;28;45559;-75
2022/02/01 04:40:36;;;;;;;;;9.00;3.00;;;;;6.44;65.91;101966.75;5054063;28;45719;-76
2022/02/01 04:46:24;;;;;;;;;5.50;2.00;;;;;6.49;66.33;101959.63;5053954;28;46088;-76
2022/02/01 04:48:50;;;;;;;;;2.00;2.00;;;;;6.50;66.45;101956.13;5054250;28;45935;-75
2022/02/01 04:51:17;;;;;;;;;2.00;2.00;;;;;6.48;66.65;101950.16;5054104;28;45632;-76
2022/02/01 04:53:43;;;;;;;;;3.00;1.75;;;;;6.48;66.96;101953.56;5053530;28;47458;-78
2022/02/01 04:56:09;;;;;;;;;2.50;2.50;;;;;6.48;66.91;101937.94;5053549;28;46242;-77
2022/02/01 05:02:24;;;;;;;;;4.00;3.00;;;;;6.43;67.59;101913.81;5052711;28;46122;-77
2022/02/01 05:04:49;;;;;;;;;5.25;1.25;;;;;6.47;67.26;101907.66;5053709;28;45554;-75
2022/02/01 05:07:20;;;;;;;;;2.00;1.75;;;;;6.39;67.63;101901.81;5035656;28;46041;-76
2022/02/01 05:09:45;;;;;;;;;4.00;4.00;;;;;6.50;67.34;101927.50;5053218;28;45713;-77
2022/02/01 05:12:11;;;;;;;;;1.75;1.50;;;;;6.50;68.17;101925.75;5051929;28;45846;-74
2022/02/01 05:17:57;;;;;;;;;2.00;1.00;;;;;6.47;68.31;101931.06;5053018;28;45759;-76
2022/02/01 05:20:45;;;;;;;;;4.50;2.00;;;;;6.42;68.16;101930.38;5053288;28;45800;-76
2022/02/01 05:23:10;;;;;;;;;1.00;1.00;;;;;6.51;68.45;101944.81;5052422;28;45629;-77
2022/02/01 05:25:36;;;;;;;;;1.75;1.75;;;;;6.52;68.45;101950.00;5053312;28;47348;-77
2022/02/01 05:28:02;;;;;;;;;1.75;1.00;;;;;6.44;68.83;101933.75;5053358;28;46306;-75
2022/02/01 05:33:49;;;;;;;;;5.25;2.00;;;;;6.49;69.42;101925.78;5053773;28;45755;-76
2022/02/01 05:36:15;;;;;;;;;2.50;2.00;;;;;6.53;69.11;101935.22;5053675;28;46212;-76
2022/02/01 05:38:40;;;;;;;;;4.50;3.00;;;;;6.52;69.33;101934.38;5053998;28;46161;-75
2022/02/01 05:41:08;;;;;;;;;2.00;2.00;;;;;6.57;69.17;101929.84;5052994;28;45618;-75
2022/02/01 05:43:33;;;;;;;;;1.50;1.00;;;;;6.59;68.90;101921.97;5053969;28;45582;-76
2022/02/01 05:46:00;;;;;;;;;4.00;1.75;;;;;6.61;69.65;101921.03;5052509;28;47070;-76
2022/02/01 05:48:28;;;;;;;;;5.25;3.50;;;;;6.61;69.46;101908.03;5054543;28;45601;-76
2022/02/01 05:50:56;;;;;;;;;1.00;1.00;;;;;6.64;69.53;101899.28;5055962;28;45668;-76
2022/02/01 05:53:21;;;;;;;;;2.50;1.75;;;;;6.66;69.56;101895.69;5056632;28;45859;-75
2022/02/01 05:55:49;;;;;;;;;1.00;1.00;;;;;6.67;70.19;101897.41;5056061;28;46400;-77
2022/02/01 05:58:15;;;;;;;;;2.00;1.00;;;;;6.69;70.07;101889.53;5054876;28;46485;-76
2022/02/01 06:04:30;;;;;;;;;1.00;1.00;;;;;6.63;70.36;101858.50;5052198;28;45724;-78
2022/02/01 06:06:55;;;;;;;;;1.25;1.00;;;;;6.73;70.52;101867.69;5035314;28;46409;-75
2022/02/01 06:09:21;;;;;;;;;3.25;2.00;;;;;6.75;70.50;101877.13;5053021;28;47168;-77
2022/02/01 06:11:46;;;;;;;;;1.00;1.00;;;;;6.75;70.47;101874.53;5053440;28;45751;-77
2022/02/01 06:14:11;;;;;;;;;5.25;3.00;;;;;6.72;70.43;101858.19;5053012;28;45753;-78
2022/02/01 06:16:37;;;;;;;;;3.50;2.00;;;;;6.75;70.70;101865.88;5052277;28;47383;-76
2022/02/01 06:19:02;;;;;;;;;7.75;2.00;;;;;6.82;70.88;101874.31;5052097;28;45670;-77
2022/02/01 06:21:28;;;;;;;;;2.50;0.00;;;;;6.84;70.98;101875.13;5052695;28;45774;-75
2022/02/01 06:23:53;;;;;;;;;4.75;2.00;;;;;6.85;70.93;101866.41;5052935;28;45526;-73
2022/02/01 06:26:22;;;;;;;;;3.50;2.50;;;;;6.87;70.96;101861.97;5052347;28;48158;-72
2022/02/01 06:28:47;;;;;;;;;4.00;2.00;;;;;6.81;70.93;101855.25;5053127;28;46279;-74
2022/02/01 06:34:35;;;;;;;;;2.50;1.50;;;;;6.93;71.17;101874.78;5055143;28;45520;-77
2022/02/01 06:37:00;;;;;;;;;1.75;1.00;;;;;6.92;70.90;101875.69;5039100;28;45626;-76
2022/02/01 06:39:27;;;;;;;;;1.75;1.25;;;;;6.92;70.69;101865.28;5056954;28;45765;-76
2022/02/01 06:41:52;;;;;;;;;6.00;1.00;;;;;6.98;71.10;101870.25;5056748;28;45990;-76
2022/02/01 06:44:18;;;;;;;;;1.25;1.00;;;;;6.92;70.89;101849.66;5056937;28;45595;-76
2022/02/01 06:46:43;;;;;;;;;4.75;3.00;;;;;7.02;71.31;101884.88;5055862;28;46596;-77
2022/02/01 06:49:11;;;;;;;;;4.25;1.50;;;;;6.65;71.05;101826.28;5057577;28;46388;-76
2022/02/01 06:51:38;;;;;;;;;3.25;2.00;;;;;6.98;70.79;101870.25;5059510;28;45630;-78
2022/02/01 06:54:05;;;;;;;;;2.50;1.00;;;;;7.06;70.82;101876.06;5058495;28;45546;-77
2022/02/01 06:56:32;;;;;;;;;3.25;2.00;;;;;7.05;70.84;101861.34;5040212;28;45585;-77
2022/02/01 06:58:59;;;;;;;;;2.75;2.00;;;;;7.09;70.54;101868.13;5057353;28;46274;-76
2022/02/01 07:04:46;;;;;;;;;1.00;1.00;;;;;7.16;71.07;101856.59;5073979;28;45700;-75
2022/02/01 07:07:12;;;;;;;;;3.25;2.00;;;;;7.13;70.84;101854.06;5067795;28;45840;-75
2022/02/01 07:09:39;;;;;;;;;6.75;3.00;;;;;7.18;70.86;101878.22;5049400;28;46240;-75
2022/02/01 07:12:05;;;;;;;;;4.00;1.00;;;;;7.23;70.87;101883.28;5068090;28;45668;-76
2022/02/01 07:14:30;;;;;;;;;2.75;2.00;;;;;7.25;70.79;101871.00;5055586;28;45597;-76
2022/02/01 07:16:55;;;;;;;;;1.50;1.00;;;;;7.27;71.22;101880.50;5055237;28;46323;-77
2022/02/01 07:19:21;;;;;;;;;4.00;2.00;;;;;7.27;71.33;101871.81;5055109;28;45968;-77
2022/02/01 07:21:47;;;;;;;;;1.25;0.25;;;;;7.24;70.98;101862.34;5055512;28;45736;-77
2022/02/01 07:24:16;;;;;;;;;2.50;1.50;;;;;7.24;71.32;101851.91;5055973;28;45703;-77
2022/02/01 07:26:53;;;;;;;;;4.75;2.75;;;;;7.26;71.92;101860.53;5055581;28;45693;-77
2022/02/01 07:29:19;;;;;;;;;4.25;2.50;;;;;7.27;71.61;101877.03;5057477;28;46406;-75
2022/02/01 07:35:08;;;;;;;;;5.00;4.00;;;;;7.31;71.74;101876.00;5056780;28;45732;-77
2022/02/01 07:37:35;;;;;;;;;2.50;1.00;;;;;7.23;71.67;101855.47;5055798;28;48220;-76
2022/02/01 07:40:02;;;;;;;;;4.75;2.00;;;;;7.26;71.47;101855.34;5055810;28;47093;-75
2022/02/01 07:42:28;;;;;;;;;5.00;2.50;;;;;7.35;71.70;101868.00;5055807;28;45653;-74
2022/02/01 07:44:58;;;;;;;;;5.00;2.00;;;;;7.24;71.83;101840.66;5055920;28;45478;-77
2022/02/01 07:47:24;;;;;;;;;5.00;2.00;;;;;7.33;71.78;101841.16;5054408;28;45774;-77
2022/02/01 07:49:49;;;;;;;;;2.50;2.00;;;;;7.39;71.79;101846.16;5055440;28;46127;-76
2022/02/01 07:52:16;;;;;;;;;2.00;2.00;;;;;7.31;71.95;101814.31;5055207;28;45708;-77
2022/02/01 07:54:41;;;;;;;;;2.50;2.00;;;;;7.43;71.74;101836.44;5055616;28;45562;-74
2022/02/01 07:57:07;;;;;;;;;2.00;2.00;;;;;7.40;72.04;101821.75;5054540;28;46593;-76
2022/02/01 07:59:35;;;;;;;;;2.00;2.00;;;;;7.47;72.05;101820.63;5054630;28;46009;-76
2022/02/01 08:05:25;;;;;;;;;5.25;5.00;;;;;7.50;72.07;101820.50;5053871;28;45745;-78
2022/02/01 08:07:54;;;;;;;;;5.00;2.00;;;;;7.51;72.26;101819.59;5054241;28;46651;-77
2022/02/01 08:10:20;;;;;;;;;2.00;1.00;;;;;7.45;72.31;101809.41;5054830;28;46146;-77
2022/02/01 08:13:32;;;;;;;;;2.75;2.00;;;;;7.39;72.25;101786.19;5055235;28;45832;-77
2022/02/01 08:18:32;;;;;;;;;2.00;2.00;;;;;7.58;72.08;101800.19;5054646;28;45626;-76
2022/02/01 08:21:01;;;;;;;;;8.25;4.50;;;;;7.62;72.31;101800.06;5054539;28;45713;-77
2022/02/01 08:23:27;;;;;;;;;3.50;2.50;;;;;7.61;72.12;101803.59;5054707;28;45880;-77
2022/02/01 08:25:53;;;;;;;;;9.50;3.00;;;;;7.64;72.42;101803.47;5054740;28;45581;-76
2022/02/01 08:28:21;;;;;;;;;4.00;3.00;;;;;7.63;72.21;101796.56;5054811;28;46324;-75
2022/02/01 08:30:50;;;;;;;;;2.00;2.00;;;;;7.62;72.03;101805.28;5054834;28;46082;-77
2022/02/01 08:33:16;;;;;;;;;4.25;3.25;;;;;7.67;72.49;101801.56;5054859;28;45656;-75
2022/02/01 08:35:42;;;;;;;;;1.25;1.25;;;;;7.62;72.50;101781.81;5054381;28;46091;-76
2022/02/01 08:38:07;;;;;;;;;4.75;3.25;;;;;7.66;72.48;101793.84;5054540;28;46574;-77
2022/02/01 08:40:32;;;;;;;;;2.00;1.50;;;;;7.56;72.65;101775.06;5036461;28;47310;-77
2022/02/01 08:42:58;;;;;;;;;2.00;2.00;;;;;7.69;72.69;101786.72;5054489;28;45594;-77
2022/02/01 08:45:24;;;;;;;;;3.25;2.75;;;;;7.70;72.53;101774.53;5054619;28;45815;-74
2022/02/01 08:47:51;;;;;;;;;5.00;3.50;;;;;7.71;72.63;101773.63;5054143;28;45555;-75
2022/02/01 08:50:23;;;;;;;;;5.50;2.25;;;;;7.68;72.77;101765.91;5054480;28;46024;-77
2022/02/01 08:52:50;;;;;;;;;4.75;2.00;;;;;7.74;72.92;101779.56;5054269;28;45696;-77
2022/02/01 08:55:38;;;;;;;;;3.50;1.75;;;;;7.71;72.91;101769.28;5054521;28;45560;-75
2022/02/01 08:58:04;;;;;;;;;4.75;3.25;;;;;7.72;73.03;101757.91;5069597;28;46500;-77
2022/02/01 09:00:33;;;;;;;;;5.00;2.75;;;;;7.78;73.05;101764.63;5054136;28;46236;-77
2022/02/01 09:03:03;;;;;;;;;6.25;5.00;;;;;7.79;73.00;101755.91;5054183;28;45921;-77
2022/02/01 09:05:29;;;;;;;;;9.25;6.00;;;;;7.80;73.21;101761.06;5054098;28;45659;-76
2022/02/01 09:07:54;;;;;;;;;5.25;5.25;;;;;7.82;73.59;101755.78;5054109;28;45901;-76
2022/02/01 09:10:20;;;;;;;;;2.00;1.00;;;;;7.80;73.65;101744.56;5053624;28;46240;-77
2022/02/01 09:12:49;;;;;;;;;4.00;2.00;;;;;7.84;73.63;101751.34;5054047;28;45910;-77
2022/02/01 09:15:15;;;;;;;;;5.75;3.50;;;;;7.86;73.82;101739.09;5054280;28;45498;-76
2022/02/01 09:17:43;;;;;;;;;4.00;4.00;;;;;7.87;73.84;101733.81;5053812;28;47543;-78
2022/02/01 09:20:09;;;;;;;;;5.00;3.00;;;;;7.90;73.82;101740.66;5054113;28;45818;-76
2022/02/01 09:22:35;;;;;;;;;2.00;2.00;;;;;7.88;73.81;101719.84;5054072;28;45553;-77
2022/02/01 09:25:00;;;;;;;;;4.00;3.50;;;;;7.94;73.92;101731.78;5054237;28;45740;-77
2022/02/01 09:27:26;;;;;;;;;2.25;2.00;;;;;7.97;74.00;101737.72;5053876;28;46784;-77
2022/02/01 09:29:53;;;;;;;;;3.00;2.75;;;;;7.98;73.98;101731.59;5054815;28;47085;-77
2022/02/01 09:32:18;;;;;;;;;2.50;2.00;;;;;7.96;74.13;101725.59;5058182;28;45696;-76
2022/02/01 09:34:44;;;;;;;;;4.00;3.00;;;;;8.01;74.08;101714.97;5061385;28;45491;-77
2022/02/01 09:37:09;;;;;;;;;4.00;4.00;;;;;8.04;73.88;101722.69;5056629;28;45527;-76
2022/02/01 09:39:35;;;;;;;;;5.00;2.75;;;;;8.11;74.02;101718.00;5053408;28;47150;-76
2022/02/01 09:42:01;;;;;;;;;6.00;5.75;;;;;8.16;73.83;101716.06;5053615;28;45738;-78
2022/02/01 09:44:27;;;;;;;;;3.50;3.00;;;;;8.10;73.84;101698.91;5035864;28;45611;-76
2022/02/01 09:46:52;;;;;;;;;4.00;2.75;;;;;8.17;73.96;101694.25;5053246;28;45691;-75
2022/02/01 09:49:19;;;;;;;;;3.50;2.50;;;;;8.25;74.11;101708.69;5052630;28;47118;-76
2022/02/01 09:51:54;;;;;;;;;6.50;3.00;;;;;8.31;73.80;101716.25;5053509;28;45670;-77
2022/02/01 09:54:27;;;;;;;;;2.75;2.75;;;;;8.36;74.08;101710.88;5068887;28;45822;-74
2022/02/01 09:56:54;;;;;;;;;2.50;2.00;;;;;8.38;73.91;101709.88;5052665;28;47383;-77
2022/02/01 09:59:30;;;;;;;;;4.50;3.50;;;;;8.42;74.02;101723.66;5052836;28;46083;-77
2022/02/01 10:01:56;;;;;;;;;5.25;3.00;;;;;8.42;74.02;101714.03;5053106;28;45598;-74
2022/02/01 10:04:29;;;;;;;;;2.75;2.75;;;;;8.49;74.14;101718.97;5053179;28;45642;-75
2022/02/01 10:07:14;;;;;;;;;4.00;3.00;;;;;8.52;74.24;101719.72;5052910;28;45712;-75
2022/02/01 10:09:56;;;;;;;;;5.00;3.00;;;;;8.57;74.22;101724.72;5053969;28;46383;-77
2022/02/01 10:12:25;;;;;;;;;5.00;3.50;;;;;8.56;74.47;101710.81;5056972;28;45934;-77
2022/02/01 10:15:04;;;;;;;;;3.25;2.50;;;;;8.63;74.20;101725.31;5038931;28;45582;-75
2022/02/01 10:17:42;;;;;;;;;5.00;3.00;;;;;8.66;74.44;101735.59;5056472;28;45769;-77
2022/02/01 10:20:09;;;;;;;;;4.50;2.75;;;;;8.70;74.49;101723.25;5056653;28;47042;-76
2022/02/01 10:22:35;;;;;;;;;1.75;1.00;;;;;8.71;74.67;101697.06;5056468;28;45829;-77
2022/02/01 10:25:04;;;;;;;;;2.75;2.00;;;;;8.70;74.69;101702.34;5057247;28;45677;-77
2022/02/01 10:27:32;;;;;;;;;2.75;2.75;;;;;8.74;74.54;101720.44;5056768;28;46416;-76
2022/02/01 10:30:14;;;;;;;;;3.50;3.00;;;;;8.72;75.06;101695.28;5056243;28;46315;-77
2022/02/01 10:36:07;;;;;;;;;5.25;2.00;;;;;8.79;74.96;101704.56;5056718;28;45756;-76
2022/02/01 10:38:12;;;;;;;;;6.25;4.00;;;;;8.81;75.17;101693.09;5050440;28;46374;-77
2022/02/01 10:40:45;;;;;;;;;3.00;2.00;;;;;8.84;75.03;101687.75;5054433;28;46175;-77
2022/02/01 10:43:18;;;;;;;;;5.00;2.00;;;;;8.87;75.21;101691.13;5055351;28;45941;-77
2022/02/01 10:48:29;;;;;;;;;2.00;2.00;;;;;8.89;75.21;101687.53;5055538;28;46132;-77
2022/02/01 10:51:23;;;;;;;;;1.00;1.00;;;;;8.90;75.67;101686.63;5056962;28;46225;-76
2022/02/01 10:53:51;;;;;;;;;2.75;2.50;;;;;8.94;75.60;101689.91;5070431;28;45647;-75
2022/02/01 10:56:19;;;;;;;;;2.00;1.00;;;;;8.95;75.46;101682.00;5060530;28;45513;-76
2022/02/01 10:58:46;;;;;;;;;1.50;1.25;;;;;9.01;75.44;101686.09;5063530;28;46382;-76
2022/02/01 11:04:37;;;;;;;;;1.25;1.25;;;;;9.07;75.30;101659.69;5056253;28;45759;-77
2022/02/01 11:07:05;;;;;;;;;2.00;2.00;;;;;9.13;75.66;101665.44;5056276;28;45506;-77
2022/02/01 11:09:32;;;;;;;;;2.00;2.00;;;;;9.19;75.70;101657.31;5055457;28;46401;-75
2022/02/01 11:12:32;;;;;;;;;1.50;1.50;;;;;9.20;75.68;101630.25;5055708;28;46323;-77
2022/02/01 11:14:57;;;;;;;;;4.00;2.00;;;;;9.26;75.58;101650.00;5055478;28;45811;-76
2022/02/01 11:20:48;;;;;;;;;2.00;2.00;;;;;9.36;75.85;101635.56;5055430;28;45625;-77
2022/02/01 11:23:19;;;;;;;;;1.00;1.00;;;;;9.36;75.79;101616.41;5055404;28;47035;-76
2022/02/01 11:25:48;;;;;;;;;1.00;1.00;;;;;9.42;75.70;101626.56;5055478;28;45636;-77
2022/02/01 11:28:33;;;;;;;;;5.00;2.00;;;;;9.46;75.59;101628.09;5054851;28;45531;-75
2022/02/01 11:31:02;;;;;;;;;1.50;1.50;;;;;9.52;75.43;101640.88;5056118;28;46423;-78
2022/02/01 11:36:57;;;;;;;;;1.75;1.00;;;;;9.63;75.54;101630.72;5055693;28;45515;-77
2022/02/01 11:39:23;;;;;;;;;1.00;1.00;;;;;9.62;75.83;101618.56;5056068;28;45563;-75
2022/02/01 11:41:50;;;;;;;;;1.75;1.00;;;;;9.67;75.44;101632.25;5055397;28;46767;-78
2022/02/01 11:44:28;;;;;;;;;2.00;1.00;;;;;9.68;75.53;101620.88;5056123;28;46176;-77
2022/02/01 11:47:03;;;;;;;;;3.00;3.00;;;;;9.71;75.48;101615.50;5055983;28;45830;-77
2022/02/01 11:49:28;;;;;;;;;1.00;1.00;;;;;9.75;75.61;101609.16;5055729;28;45585;-77
2022/02/01 11:52:07;;;;;;;;;2.00;2.00;;;;;9.79;75.45;101608.06;5055463;28;47208;-77
2022/02/01 11:54:34;;;;;;;;;3.00;2.75;;;;;9.82;75.49;101610.56;5055898;28;46451;-79
2022/02/01 11:57:25;;;;;;;;;5.00;5.00;;;;;9.84;75.25;101600.84;5055323;28;45795;-74
2022/02/01 11:59:57;;;;;;;;;3.00;2.75;;;;;9.76;75.24;101583.84;5055759;28;45676;-75
2022/02/01 12:02:40;;;;;;;;;5.00;2.00;;;;;9.88;75.41;101607.59;5055154;28;46732;-75
2022/02/01 12:05:06;;;;;;;;;2.00;2.00;;;;;9.87;75.35;101599.84;5054767;28;46933;-75
2022/02/01 12:07:46;;;;;;;;;2.00;2.00;;;;;9.91;75.28;101630.16;5055172;28;45995;-76
2022/02/01 12:10:13;;;;;;;;;2.00;2.00;;;;;9.91;75.59;101606.59;5055131;28;45530;-77
2022/02/01 12:12:41;;;;;;;;;3.00;2.00;;;;;9.91;75.58;101620.53;5054819;28;45922;-78
2022/02/01 12:15:07;;;;;;;;;3.00;2.50;;;;;9.90;75.45;101626.69;5054746;28;46007;-77
2022/02/01 12:17:37;;;;;;;;;2.75;2.75;;;;;9.91;75.63;101612.69;5054960;28;45691;-78
2022/02/01 12:20:04;;;;;;;;;6.50;5.00;;;;;9.86;75.91;101593.75;5054924;28;45686;-77
2022/02/01 12:22:36;;;;;;;;;3.00;3.00;;;;;9.90;75.45;101610.97;5054545;28;46389;-77
2022/02/01 12:25:05;;;;;;;;;4.75;4.25;;;;;9.92;75.75;101606.53;5054498;28;47124;-76
2022/02/01 12:27:43;;;;;;;;;3.00;3.00;;;;;9.94;76.00;101598.56;5054536;28;45894;-77
2022/02/01 12:30:10;;;;;;;;;3.50;2.75;;;;;9.89;75.97;101585.72;5054758;28;45977;-76
2022/02/01 12:32:48;;;;;;;;;4.75;2.00;;;;;9.89;76.22;101580.50;5054229;28;45661;-75
2022/02/01 12:35:14;;;;;;;;;3.75;3.00;;;;;9.92;76.21;101569.88;5054512;28;45916;-78
2022/02/01 12:37:39;;;;;;;;;3.00;3.00;;;;;9.89;76.62;101569.19;5054772;28;45633;-77
2022/02/01 12:40:11;;;;;;;;;2.25;2.25;;;;;9.88;76.58;101552.63;5054676;28;45762;-77
2022/02/01 12:42:53;;;;;;;;;2.00;2.00;;;;;9.91;77.06;101580.41;5054709;28;45901;-76
2022/02/01 12:48:05;;;;;;;;;3.00;3.00;;;;;9.87;77.12;101555.34;5054107;28;45545;-77
2022/02/01 12:50:31;;;;;;;;;5.75;2.75;;;;;9.89;77.27;101562.16;5054333;28;45551;-76
2022/02/01 12:53:02;;;;;;;;;3.50;2.25;;;;;9.91;76.89;101551.63;5054424;28;46296;-76
2022/02/01 12:55:28;;;;;;;;;3.00;3.00;;;;;9.90;77.28;101542.94;5054260;28;46033;-77
2022/02/01 12:57:54;;;;;;;;;3.00;3.00;;;;;9.93;77.27;101540.13;5053948;28;45712;-74
2022/02/01 13:00:21;;;;;;;;;2.00;1.00;;;;;9.92;77.37;101529.78;5054186;28;45918;-77
2022/02/01 13:02:47;;;;;;;;;2.00;1.00;;;;;9.91;77.54;101528.91;5054150;28;45885;-76
2022/02/01 13:05:16;;;;;;;;;2.75;2.00;;;;;9.97;77.72;101546.91;5053691;28;46088;-75
2022/02/01 13:21:17;;;;;;;;;3.75;3.00;;;;;10.08;77.52;101525.41;5052184;28;45676;-76
2022/02/01 13:23:44;;;;;;;;;3.75;3.25;;;;;10.09;77.62;101506.97;5052043;28;46657;-77
2022/02/01 13:26:23;;;;;;;;;3.25;3.00;;;;;10.11;77.63;101515.59;5051630;28;46969;-78
2022/02/01 13:29:11;;;;;;;;;6.00;3.25;;;;;10.14;77.40;101492.81;5052012;28;45704;-76
2022/02/01 13:31:46;;;;;;;;;3.00;2.75;;;;;10.18;77.21;101499.59;5052107;28;45566;-77
2022/02/01 13:34:13;;;;;;;;;3.25;2.00;;;;;10.16;77.37;101489.19;5035641;28;46767;-76
2022/02/01 13:36:50;;;;;;;;;3.75;3.00;;;;;10.23;77.39;101490.53;5051611;28;46100;-76
2022/02/01 13:39:32;;;;;;;;;2.75;2.25;;;;;10.24;77.62;101487.00;5051982;28;45723;-75
2022/02/01 13:42:01;;;;;;;;;1.25;1.00;;;;;10.27;77.54;101491.22;5051803;28;46062;-76
2022/02/01 13:44:29;;;;;;;;;3.00;2.75;;;;;10.23;77.70;101469.59;5052437;28;46510;-76
2022/02/01 13:50:19;;;;;;;;;5.00;2.00;;;;;10.30;77.40;101470.94;5057565;28;45736;-76
2022/02/01 13:52:59;;;;;;;;;2.00;2.00;;;;;10.38;77.37;101500.16;5057507;28;45651;-76
2022/02/01 13:55:28;;;;;;;;;5.50;2.00;;;;;10.42;77.58;101475.47;5057112;28;46335;-76
2022/02/01 13:58:06;;;;;;;;;3.00;2.00;;;;;10.44;77.46;101484.09;5055943;28;46240;-77
2022/02/01 14:00:36;;;;;;;;;2.00;2.00;;;;;10.48;77.53;101483.00;5057462;28;45706;-76
2022/02/01 14:06:29;;;;;;;;;5.25;2.00;;;;;10.50;76.99;101464.56;5055446;28;45666;-76
2022/02/01 14:11:47;;;;;;;;;3.00;0.00;;;;;10.55;77.17;101470.41;5057383;28;45660;-76
2022/02/01 14:14:33;;;;;;;;;0.50;0.50;;;;;10.63;77.06;101486.53;5057051;28;45945;-75
2022/02/01 14:25:39;;;;;;;;;1.00;1.00;;;;;10.74;77.28;101468.38;5056995;28;45707;-79